createdAt,value
2022-09-11T00:01:50.411Z,15.28
2022-09-11T00:04:16.982Z,15.26
2022-09-11T00:06:43.829Z,15.24
2022-09-11T00:09:10.397Z,15.23
2022-09-11T00:11:42.119Z,15.24
2022-09-11T00:14:11.465Z,15.21
2022-09-11T00:16:41.306Z,15.20
2022-09-11T00:19:13.528Z,15.15
2022-09-11T00:21:39.960Z,15.12
2022-09-11T00:24:09.953Z,15.09
2022-09-11T00:26:37.337Z,15.09
2022-09-11T00:29:05.038Z,15.08
2022-09-11T00:31:32.323Z,15.04
2022-09-11T00:33:58.971Z,15.00
2022-09-11T00:36:35.690Z,14.95
2022-09-11T00:39:02.398Z,14.91
2022-09-11T00:41:36.917Z,14.89
2022-09-11T00:44:08.437Z,14.84
2022-09-11T00:46:37.900Z,14.82
2022-09-11T00:49:16.800Z,14.79
2022-09-11T00:51:45.885Z,14.76
2022-09-11T00:54:14.749Z,14.75
2022-09-11T00:56:43.267Z,14.72
2022-09-11T00:59:11.470Z,14.70
2022-09-11T01:01:37.975Z,14.70
2022-09-11T01:04:06.472Z,14.67
2022-09-11T01:06:33.528Z,14.64
2022-09-11T01:09:00.112Z,14.60
2022-09-11T01:11:40.038Z,14.57
2022-09-11T01:14:25.278Z,14.53
2022-09-11T01:17:21.768Z,14.50
2022-09-11T01:20:25.410Z,14.47
2022-09-11T01:23:10.404Z,14.46
2022-09-11T01:26:20.104Z,14.44
2022-09-11T01:28:58.415Z,14.42
2022-09-11T01:31:36.178Z,14.41
2022-09-11T01:34:27.085Z,14.38
2022-09-11T01:37:00.075Z,14.33
2022-09-11T01:39:36.205Z,14.28
2022-09-11T01:42:07.063Z,14.27
2022-09-11T01:44:41.636Z,14.24
2022-09-11T01:47:11.822Z,14.22
2022-09-11T01:49:50.201Z,14.20
2022-09-11T01:52:23.709Z,14.18
2022-09-11T01:54:59.722Z,14.19
2022-09-11T01:57:39.828Z,14.19
2022-09-11T02:00:11.260Z,14.19
2022-09-11T02:02:59.032Z,14.22
2022-09-11T02:05:47.586Z,14.27
2022-09-11T02:08:27.508Z,14.37
2022-09-11T02:11:03.475Z,14.50
2022-09-11T02:13:35.979Z,14.59
2022-09-11T02:16:17.815Z,14.68
2022-09-11T02:18:59.673Z,14.76
2022-09-11T02:21:26.574Z,14.83
2022-09-11T02:23:55.408Z,14.87
2022-09-11T02:26:24.628Z,14.93
2022-09-11T02:28:53.122Z,14.92
2022-09-11T02:31:20.681Z,14.92
2022-09-11T02:33:47.969Z,14.92
2022-09-11T02:36:32.636Z,14.92
2022-09-11T02:39:21.262Z,14.86
2022-09-11T02:42:09.993Z,14.83
2022-09-11T02:44:45.593Z,14.80
2022-09-11T02:47:15.205Z,14.79
2022-09-11T02:50:06.376Z,14.72
2022-09-11T02:52:55.364Z,14.68
2022-09-11T02:55:56.704Z,14.62
2022-09-11T02:58:27.939Z,14.60
2022-09-11T03:01:02.374Z,14.61
2022-09-11T03:03:41.763Z,14.62
2022-09-11T03:06:11.927Z,14.60
2022-09-11T03:08:40.996Z,14.55
2022-09-11T03:11:09.519Z,14.51
2022-09-11T03:13:38.110Z,14.44
2022-09-11T03:16:05.625Z,14.35
2022-09-11T03:18:33.137Z,14.27
2022-09-11T03:21:01.157Z,14.22
2022-09-11T03:23:28.194Z,14.15
2022-09-11T03:25:55.585Z,14.13
2022-09-11T03:28:23.334Z,14.07
2022-09-11T03:30:50.525Z,14.02
2022-09-11T03:33:17.187Z,14.00
2022-09-11T03:35:44.681Z,13.98
2022-09-11T03:38:11.954Z,13.96
2022-09-11T03:40:42.280Z,13.95
2022-09-11T03:43:09.420Z,13.99
2022-09-11T03:45:35.985Z,13.98
2022-09-11T03:48:02.661Z,14.02
2022-09-11T03:50:29.271Z,14.02
2022-09-11T03:52:55.774Z,14.04
2022-09-11T03:55:23.847Z,14.08
2022-09-11T03:57:50.563Z,14.13
2022-09-11T04:00:18.110Z,14.16
2022-09-11T04:02:47.121Z,14.18
2022-09-11T04:05:25.956Z,14.19
2022-09-11T04:07:53.932Z,14.19
2022-09-11T04:10:21.251Z,14.22
2022-09-11T04:12:48.467Z,14.23
2022-09-11T04:15:15.287Z,14.24
2022-09-11T04:17:41.775Z,14.24
2022-09-11T04:20:10.229Z,14.25
2022-09-11T04:22:36.835Z,14.29
2022-09-11T04:25:03.952Z,14.30
2022-09-11T04:27:30.924Z,14.30
2022-09-11T04:29:57.942Z,14.33
2022-09-11T04:32:24.598Z,14.36
2022-09-11T04:34:51.096Z,14.35
2022-09-11T04:37:19.778Z,14.37
2022-09-11T04:39:47.260Z,14.35
2022-09-11T04:42:15.137Z,14.36
2022-09-11T04:44:43.658Z,14.38
2022-09-11T04:47:10.143Z,14.41
2022-09-11T04:49:36.665Z,14.41
2022-09-11T04:52:06.023Z,14.44
2022-09-11T04:54:36.952Z,14.49
2022-09-11T04:57:06.723Z,14.50
2022-09-11T04:59:34.565Z,14.49
2022-09-11T05:02:05.330Z,14.52
2022-09-11T05:04:34.472Z,14.53
2022-09-11T05:07:01.865Z,14.51
2022-09-11T05:09:28.807Z,14.52
2022-09-11T05:11:57.353Z,14.53
2022-09-11T05:14:28.301Z,14.57
2022-09-11T05:16:55.644Z,14.59
2022-09-11T05:19:25.632Z,14.60
2022-09-11T05:21:52.224Z,14.57
2022-09-11T05:24:18.707Z,14.57
2022-09-11T05:26:45.304Z,14.56
2022-09-11T05:29:15.024Z,14.57
2022-09-11T05:31:47.788Z,14.57
2022-09-11T05:34:17.179Z,14.59
2022-09-11T05:36:45.405Z,14.61
2022-09-11T05:39:11.880Z,14.62
2022-09-11T05:41:39.395Z,14.64
2022-09-11T05:44:06.784Z,14.64
2022-09-11T05:46:35.353Z,14.66
2022-09-11T05:49:03.385Z,14.66
2022-09-11T05:51:29.904Z,14.66
2022-09-11T05:53:58.635Z,14.68
2022-09-11T05:56:26.463Z,14.71
2022-09-11T05:58:58.634Z,14.77
2022-09-11T06:01:32.343Z,14.81
2022-09-11T06:04:12.181Z,14.85
2022-09-11T06:06:40.893Z,14.88
2022-09-11T06:09:07.640Z,14.92
2022-09-11T06:11:34.718Z,14.95
2022-09-11T06:14:02.425Z,14.97
2022-09-11T06:16:31.515Z,15.00
2022-09-11T06:19:04.836Z,15.05
2022-09-11T06:21:31.452Z,15.09
2022-09-11T06:24:18.756Z,15.17
2022-09-11T06:26:46.595Z,15.22
2022-09-11T06:29:16.792Z,15.27
2022-09-11T06:31:51.143Z,15.30
2022-09-11T06:34:20.986Z,15.35
2022-09-11T06:36:51.888Z,15.42
2022-09-11T06:39:23.148Z,15.46
2022-09-11T06:41:50.733Z,15.46
2022-09-11T06:44:19.912Z,15.50
2022-09-11T06:46:47.379Z,15.48
2022-09-11T06:49:14.436Z,15.50
2022-09-11T06:52:03.423Z,15.55
2022-09-11T06:54:30.796Z,15.58
2022-09-11T06:56:58.455Z,15.62
2022-09-11T06:59:25.696Z,15.65
2022-09-11T07:01:52.316Z,15.66
2022-09-11T07:04:20.061Z,15.70
2022-09-11T07:06:49.992Z,15.74
2022-09-11T07:09:16.717Z,15.73
2022-09-11T07:11:49.069Z,15.77
2022-09-11T07:14:21.224Z,15.81
2022-09-11T07:16:54.984Z,15.86
2022-09-11T07:19:24.964Z,15.89
2022-09-11T07:21:51.868Z,15.92
2022-09-11T07:24:19.119Z,15.93
2022-09-11T07:26:45.708Z,15.95
2022-09-11T07:29:22.212Z,15.97
2022-09-11T07:31:48.996Z,15.97
2022-09-11T07:34:16.143Z,15.96
2022-09-11T07:36:43.767Z,15.97
2022-09-11T07:39:10.613Z,15.94
2022-09-11T07:41:47.133Z,15.93
2022-09-11T07:44:19.605Z,15.90
2022-09-11T07:46:46.665Z,15.87
2022-09-11T07:49:14.428Z,15.87
2022-09-11T07:51:42.484Z,15.88
2022-09-11T07:54:11.440Z,15.91
2022-09-11T07:56:41.240Z,15.96
2022-09-11T07:59:10.121Z,15.98
2022-09-11T08:01:42.584Z,16.01
2022-09-11T08:04:14.309Z,16.04
2022-09-11T08:06:41.069Z,16.06
2022-09-11T08:09:15.633Z,16.13
2022-09-11T08:11:48.831Z,16.21
2022-09-11T08:14:17.783Z,16.24
2022-09-11T08:16:47.126Z,16.26
2022-09-11T08:19:18.546Z,16.30
2022-09-11T08:21:48.584Z,16.41
2022-09-11T08:24:20.285Z,16.49
2022-09-11T08:26:49.273Z,16.59
2022-09-11T08:29:18.240Z,16.71
2022-09-11T08:31:45.313Z,16.80
2022-09-11T08:34:12.584Z,16.86
2022-09-11T08:36:39.449Z,16.89
2022-09-11T08:39:08.942Z,16.93
2022-09-11T08:41:48.201Z,16.94
2022-09-11T08:44:22.052Z,16.94
2022-09-11T08:46:59.460Z,16.97
2022-09-11T08:49:34.877Z,16.98
2022-09-11T08:52:05.638Z,16.98
2022-09-11T08:54:39.925Z,16.98
2022-09-11T08:57:31.204Z,17.05
2022-09-11T09:00:10.749Z,17.12
2022-09-11T09:03:03.184Z,17.25
2022-09-11T09:05:53.501Z,17.43
2022-09-11T09:08:35.337Z,17.59
2022-09-11T09:11:22.088Z,17.73
2022-09-11T09:14:21.429Z,17.90
2022-09-11T09:16:57.979Z,18.05
2022-09-11T09:19:35.082Z,18.19
2022-09-11T09:22:21.799Z,18.28
2022-09-11T09:24:53.944Z,18.27
2022-09-11T09:27:31.552Z,18.25
2022-09-11T09:30:02.266Z,18.24
2022-09-11T09:32:33.898Z,18.22
2022-09-11T09:35:05.099Z,18.22
2022-09-11T09:37:31.877Z,18.24
2022-09-11T09:40:02.893Z,18.23
2022-09-11T09:42:42.519Z,18.31
2022-09-11T09:45:37.539Z,18.51
2022-09-11T09:48:06.577Z,18.69
2022-09-11T09:50:38.957Z,18.86
2022-09-11T09:53:27.548Z,18.98
2022-09-11T09:55:56.606Z,19.04
2022-09-11T09:58:27.115Z,19.19
2022-09-11T10:00:53.808Z,19.26
2022-09-11T10:03:24.829Z,19.22
2022-09-11T10:05:56.825Z,19.32
2022-09-11T10:08:35.590Z,19.30
2022-09-11T10:11:07.566Z,19.24
2022-09-11T10:13:38.034Z,19.15
2022-09-11T10:16:19.476Z,19.12
2022-09-11T10:18:47.126Z,19.10
2022-09-11T10:21:14.013Z,19.07
2022-09-11T10:24:03.849Z,19.25
2022-09-11T10:26:35.040Z,19.51
2022-09-11T10:29:07.684Z,19.82
2022-09-11T10:31:38.825Z,20.05
2022-09-11T10:34:06.094Z,20.13
2022-09-11T10:36:35.054Z,20.27
2022-09-11T10:39:02.614Z,20.40
2022-09-11T10:41:34.130Z,20.49
2022-09-11T10:44:04.122Z,20.47
2022-09-11T10:46:39.164Z,20.54
2022-09-11T10:49:05.914Z,20.65
2022-09-11T10:51:45.411Z,20.73
2022-09-11T10:54:16.699Z,20.84
2022-09-11T10:57:00.208Z,20.80
2022-09-11T10:59:40.862Z,20.80
2022-09-11T11:02:30.470Z,20.78
2022-09-11T11:05:03.242Z,20.60
2022-09-11T11:08:02.640Z,20.40
2022-09-11T11:10:35.149Z,20.26
2022-09-11T11:13:27.893Z,20.22
2022-09-11T11:16:10.719Z,20.18
2022-09-11T11:18:47.549Z,20.25
2022-09-11T11:21:27.958Z,20.51
2022-09-11T11:24:46.490Z,20.59
2022-09-11T11:28:00.869Z,20.75
2022-09-11T11:30:44.908Z,20.73
2022-09-11T11:33:44.086Z,20.65
2022-09-11T11:36:15.469Z,20.87
2022-09-11T11:39:00.334Z,21.02
2022-09-11T11:41:33.055Z,21.12
2022-09-11T11:44:02.879Z,21.14
2022-09-11T11:46:40.174Z,21.05
2022-09-11T11:49:23.957Z,20.87
2022-09-11T11:52:24.581Z,20.67
2022-09-11T11:55:02.585Z,20.50
2022-09-11T11:57:41.656Z,20.67
2022-09-11T12:00:14.633Z,20.68
2022-09-11T12:02:53.802Z,20.57
2022-09-11T12:05:24.331Z,20.47
2022-09-11T12:07:51.700Z,20.36
2022-09-11T12:10:22.720Z,20.32
2022-09-11T12:12:55.373Z,20.40
2022-09-11T12:15:24.699Z,20.54
2022-09-11T12:18:04.146Z,20.59
2022-09-11T12:20:45.291Z,20.48
2022-09-11T12:23:32.571Z,20.49
2022-09-11T12:26:05.107Z,20.53
2022-09-11T12:28:31.907Z,20.65
2022-09-11T12:31:07.398Z,20.90
2022-09-11T12:33:50.415Z,21.04
2022-09-11T12:36:19.520Z,21.18
2022-09-11T12:38:50.618Z,21.31
2022-09-11T12:41:27.307Z,21.37
2022-09-11T12:43:54.776Z,21.32
2022-09-11T12:46:21.608Z,21.31
2022-09-11T12:49:05.913Z,21.20
2022-09-11T12:51:42.290Z,21.18
2022-09-11T12:54:23.474Z,21.32
2022-09-11T12:57:12.923Z,21.39
2022-09-11T12:59:42.999Z,21.56
2022-09-11T13:02:33.555Z,21.62
2022-09-11T13:05:01.711Z,21.53
2022-09-11T13:07:39.831Z,21.38
2022-09-11T13:10:09.569Z,21.40
2022-09-11T13:12:49.973Z,21.31
2022-09-11T13:15:38.098Z,21.34
2022-09-11T13:18:25.572Z,21.36
2022-09-11T13:21:13.304Z,21.41
2022-09-11T13:23:42.997Z,21.28
2022-09-11T13:26:16.741Z,21.15
2022-09-11T13:28:46.836Z,21.15
2022-09-11T13:31:20.095Z,21.29
2022-09-11T13:33:50.093Z,21.28
2022-09-11T13:36:21.181Z,21.34
2022-09-11T13:38:54.399Z,21.40
2022-09-11T13:41:29.010Z,21.40
2022-09-11T13:44:11.501Z,21.36
2022-09-11T13:46:50.353Z,21.40
2022-09-11T13:49:36.000Z,21.58
2022-09-11T13:52:06.264Z,21.62
2022-09-11T13:54:51.576Z,21.56
2022-09-11T13:57:28.121Z,21.63
2022-09-11T14:00:00.687Z,21.71
2022-09-11T14:02:44.134Z,21.68
2022-09-11T14:05:21.899Z,21.62
2022-09-11T14:07:55.955Z,21.61
2022-09-11T14:10:30.267Z,21.47
2022-09-11T14:13:04.167Z,21.34
2022-09-11T14:15:59.560Z,21.22
2022-09-11T14:18:34.182Z,21.17
2022-09-11T14:21:05.100Z,21.14
2022-09-11T14:23:31.817Z,21.07
2022-09-11T14:26:09.367Z,21.02
2022-09-11T14:28:48.642Z,21.05
2022-09-11T14:31:29.409Z,21.07
2022-09-11T14:34:16.301Z,21.01
2022-09-11T14:36:46.811Z,20.96
2022-09-11T14:39:25.897Z,20.90
2022-09-11T14:41:55.167Z,20.81
2022-09-11T14:44:23.871Z,20.71
2022-09-11T14:46:50.336Z,20.55
2022-09-11T14:49:16.875Z,20.50
2022-09-11T14:51:43.898Z,20.49
2022-09-11T14:54:15.157Z,20.51
2022-09-11T14:56:42.537Z,20.50
2022-09-11T14:59:09.028Z,20.52
2022-09-11T15:01:36.524Z,20.61
2022-09-11T15:04:03.356Z,20.63
2022-09-11T15:06:30.384Z,20.62
2022-09-11T15:08:57.247Z,20.66
2022-09-11T15:11:23.705Z,20.71
2022-09-11T15:14:13.486Z,20.76
2022-09-11T15:16:36.627Z,20.75
2022-09-11T15:19:03.514Z,20.73
2022-09-11T15:21:33.006Z,20.74
2022-09-11T15:24:04.979Z,20.76
2022-09-11T15:26:37.279Z,20.84
2022-09-11T15:29:09.834Z,20.97
2022-09-11T15:31:37.644Z,21.11
2022-09-11T15:34:06.261Z,21.23
2022-09-11T15:36:38.125Z,21.33
2022-09-11T15:39:06.054Z,21.40
2022-09-11T15:41:33.667Z,21.37
2022-09-11T15:44:00.171Z,21.31
2022-09-11T15:46:26.673Z,21.29
2022-09-11T15:48:53.169Z,21.20
2022-09-11T15:51:21.936Z,21.05
2022-09-11T15:53:48.413Z,20.95
2022-09-11T15:56:22.717Z,20.91
2022-09-11T15:58:52.675Z,20.85
2022-09-11T16:01:21.617Z,20.79
2022-09-11T16:03:53.208Z,20.72
2022-09-11T16:06:20.978Z,20.67
2022-09-11T16:08:47.949Z,20.78
2022-09-11T16:11:17.218Z,20.81
2022-09-11T16:13:47.835Z,21.40
2022-09-11T16:16:14.393Z,21.36
2022-09-11T16:18:42.520Z,22.41
2022-09-11T16:21:11.434Z,23.18
2022-09-11T16:23:39.159Z,23.89
2022-09-11T16:26:08.302Z,24.56
2022-09-11T16:28:36.344Z,25.26
2022-09-11T16:31:03.882Z,25.98
2022-09-11T16:33:31.010Z,26.59
2022-09-11T16:36:06.854Z,27.11
2022-09-11T16:38:35.451Z,27.42
2022-09-11T16:41:15.722Z,27.73
2022-09-11T16:43:45.093Z,27.88
2022-09-11T16:46:17.198Z,28.06
2022-09-11T16:48:44.858Z,28.26
2022-09-11T16:51:14.373Z,28.40
2022-09-11T16:53:41.694Z,28.50
2022-09-11T16:56:10.826Z,28.27
2022-09-11T16:58:38.004Z,27.15
2022-09-11T17:01:10.201Z,26.29
2022-09-11T17:03:41.346Z,25.60
2022-09-11T17:06:09.196Z,24.97
2022-09-11T17:08:38.015Z,24.44
2022-09-11T17:11:06.042Z,23.95
2022-09-11T17:13:32.808Z,23.54
2022-09-11T17:16:07.107Z,23.16
2022-09-11T17:18:34.169Z,22.82
2022-09-11T17:21:06.233Z,22.49
2022-09-11T17:23:34.625Z,22.19
2022-09-11T17:26:09.139Z,21.92
2022-09-11T17:28:37.105Z,21.67
2022-09-11T17:31:06.914Z,21.41
2022-09-11T17:33:35.512Z,21.18
2022-09-11T17:36:05.868Z,20.96
2022-09-11T17:38:32.839Z,20.74
2022-09-11T17:41:02.655Z,20.54
2022-09-11T17:43:29.403Z,20.34
2022-09-11T17:46:24.082Z,20.14
2022-09-11T17:48:50.683Z,19.98
2022-09-11T17:51:26.144Z,19.82
2022-09-11T17:53:56.403Z,19.67
2022-09-11T17:56:25.894Z,19.52
2022-09-11T17:58:54.753Z,19.41
2022-09-11T18:01:22.000Z,19.28
2022-09-11T18:03:53.916Z,19.14
2022-09-11T18:06:25.376Z,19.02
2022-09-11T18:08:53.211Z,18.91
2022-09-11T18:11:19.748Z,18.80
2022-09-11T18:13:46.225Z,18.70
2022-09-11T18:16:12.860Z,18.60
2022-09-11T18:18:39.577Z,18.49
2022-09-11T18:21:08.872Z,18.39
2022-09-11T18:23:39.880Z,18.30
2022-09-11T18:26:07.272Z,18.21
2022-09-11T18:28:34.462Z,18.12
2022-09-11T18:31:02.935Z,18.03
2022-09-11T18:33:30.271Z,17.96
2022-09-11T18:36:02.214Z,17.87
2022-09-11T18:38:32.914Z,17.79
2022-09-11T18:41:00.707Z,17.70
2022-09-11T18:43:28.577Z,17.63
2022-09-11T18:45:55.632Z,17.55
2022-09-11T18:48:22.585Z,17.48
2022-09-11T18:50:49.186Z,17.41
2022-09-11T18:53:17.365Z,17.33
2022-09-11T18:55:43.820Z,17.25
2022-09-11T18:58:10.576Z,17.19
2022-09-11T19:00:38.545Z,17.12
2022-09-11T19:03:05.225Z,17.04
2022-09-11T19:05:31.735Z,16.96
2022-09-11T19:08:00.221Z,16.91
2022-09-11T19:10:26.897Z,16.84
2022-09-11T19:12:54.159Z,16.80
2022-09-11T19:15:20.684Z,16.77
2022-09-11T19:17:49.299Z,16.75
2022-09-11T19:20:16.152Z,16.76
2022-09-11T19:22:42.677Z,16.77
2022-09-11T19:25:09.999Z,16.80
2022-09-11T19:27:39.726Z,16.84
2022-09-11T19:30:06.771Z,16.86
2022-09-11T19:32:33.817Z,16.87
2022-09-11T19:35:00.575Z,16.86
2022-09-11T19:37:28.412Z,16.88
2022-09-11T19:39:57.083Z,16.89
2022-09-11T19:42:23.852Z,16.90
2022-09-11T19:44:53.130Z,16.90
2022-09-11T19:47:24.848Z,16.90
2022-09-11T19:49:53.052Z,16.91
2022-09-11T19:52:19.573Z,16.90
2022-09-11T19:54:46.167Z,16.94
2022-09-11T19:57:12.713Z,16.98
2022-09-11T19:59:39.219Z,16.98
2022-09-11T20:02:05.845Z,16.96
2022-09-11T20:04:32.717Z,16.90
2022-09-11T20:07:00.398Z,16.82
2022-09-11T20:09:31.267Z,16.73
2022-09-11T20:12:00.492Z,16.63
2022-09-11T20:14:29.764Z,16.53
2022-09-11T20:16:56.452Z,16.45
2022-09-11T20:19:22.993Z,16.37
2022-09-11T20:21:49.738Z,16.31
2022-09-11T20:24:16.181Z,16.25
2022-09-11T20:26:42.996Z,16.18
2022-09-11T20:29:13.736Z,16.13
2022-09-11T20:31:47.893Z,16.07
2022-09-11T20:34:18.979Z,15.99
2022-09-11T20:36:45.861Z,15.93
2022-09-11T20:39:16.217Z,15.87
2022-09-11T20:41:43.274Z,15.81
2022-09-11T20:44:10.098Z,15.76
2022-09-11T20:46:36.687Z,15.69
2022-09-11T20:49:04.657Z,15.63
2022-09-11T20:51:32.678Z,15.58
2022-09-11T20:54:00.478Z,15.53
2022-09-11T20:56:28.149Z,15.48
2022-09-11T20:58:54.732Z,15.44
2022-09-11T21:01:23.445Z,15.39
2022-09-11T21:03:55.181Z,15.36
2022-09-11T21:06:26.059Z,15.30
2022-09-11T21:08:55.888Z,15.25
2022-09-11T21:11:23.475Z,15.22
2022-09-11T21:13:50.461Z,15.18
2022-09-11T21:16:18.127Z,15.16
2022-09-11T21:18:47.111Z,15.13
2022-09-11T21:21:14.195Z,15.12
2022-09-11T21:23:40.935Z,15.11
2022-09-11T21:26:08.624Z,15.10
2022-09-11T21:28:35.420Z,15.09
2022-09-11T21:31:02.500Z,15.06
2022-09-11T21:33:29.084Z,15.05
2022-09-11T21:35:55.884Z,15.05
2022-09-11T21:38:24.605Z,15.05
2022-09-11T21:40:52.130Z,15.02
2022-09-11T21:43:18.659Z,14.98
2022-09-11T21:45:45.416Z,14.92
2022-09-11T21:48:12.480Z,14.87
2022-09-11T21:50:39.425Z,14.83
2022-09-11T21:53:06.962Z,14.79
2022-09-11T21:55:42.690Z,14.75
2022-09-11T21:58:19.402Z,14.70
2022-09-11T22:00:51.200Z,14.65
2022-09-11T22:03:19.257Z,14.62
2022-09-11T22:05:49.084Z,14.57
2022-09-11T22:08:18.267Z,14.53
2022-09-11T22:10:50.133Z,14.49
2022-09-11T22:13:18.896Z,14.44
2022-09-11T22:15:48.748Z,14.40
2022-09-11T22:18:16.173Z,14.34
2022-09-11T22:20:43.463Z,14.31
2022-09-11T22:23:22.678Z,14.27
2022-09-11T22:26:02.675Z,14.23
2022-09-11T22:28:29.152Z,14.21
2022-09-11T22:30:55.744Z,14.17
2022-09-11T22:33:22.589Z,14.14
2022-09-11T22:35:49.654Z,14.10
2022-09-11T22:38:16.499Z,14.07
2022-09-11T22:40:43.041Z,14.03
2022-09-11T22:43:09.677Z,14.02
2022-09-11T22:45:36.202Z,13.99
2022-09-11T22:48:02.843Z,13.96
2022-09-11T22:50:29.292Z,13.93
2022-09-11T22:52:56.217Z,13.90
2022-09-11T22:55:22.653Z,13.88
2022-09-11T22:57:49.105Z,13.84
2022-09-11T23:00:15.781Z,13.81
2022-09-11T23:02:42.514Z,13.79
2022-09-11T23:05:27.406Z,13.75
2022-09-11T23:07:54.660Z,13.72
2022-09-11T23:10:21.873Z,13.68
2022-09-11T23:12:48.408Z,13.66
2022-09-11T23:15:14.900Z,13.62
2022-09-11T23:17:41.382Z,13.59
2022-09-11T23:20:08.079Z,13.57
2022-09-11T23:22:34.522Z,13.54
2022-09-11T23:25:01.004Z,13.51
2022-09-11T23:27:27.619Z,13.49
2022-09-11T23:29:54.079Z,13.47
2022-09-11T23:32:20.672Z,13.44
2022-09-11T23:34:47.144Z,13.41
2022-09-11T23:37:13.628Z,13.38
2022-09-11T23:39:40.191Z,13.35
2022-09-11T23:42:06.724Z,13.33
2022-09-11T23:44:33.200Z,13.30
2022-09-11T23:47:01.338Z,13.28
2022-09-11T23:49:32.096Z,13.25
2022-09-11T23:52:00.780Z,13.23
2022-09-11T23:54:27.599Z,13.22
2022-09-11T23:56:54.051Z,13.19
2022-09-11T23:59:20.676Z,13.17
